createdAt,value
2018-03-11T00:01:54.948Z,13.70
2018-03-11T00:04:23.236Z,13.69
2018-03-11T00:06:51.564Z,13.67
2018-03-11T00:09:19.854Z,13.65
2018-03-11T00:11:48.152Z,13.63
2018-03-11T00:14:17.220Z,13.63
2018-03-11T00:16:45.538Z,13.60
2018-03-11T00:19:14.624Z,13.55
2018-03-11T00:21:42.950Z,13.49
2018-03-11T00:24:11.297Z,13.43
2018-03-11T00:26:40.379Z,13.34
2018-03-11T00:29:08.678Z,13.29
2018-03-11T00:31:37.754Z,13.27
2018-03-11T00:34:06.060Z,13.22
2018-03-11T00:36:35.150Z,13.20
2018-03-11T00:39:03.460Z,13.19
2018-03-11T00:41:31.753Z,13.16
2018-03-11T00:44:00.054Z,13.11
2018-03-11T00:46:28.346Z,13.09
2018-03-11T00:48:56.665Z,13.09
2018-03-11T00:51:25.730Z,13.08
2018-03-11T00:53:54.031Z,13.08
2018-03-11T00:56:22.329Z,13.07
2018-03-11T00:58:51.389Z,13.07
2018-03-11T01:01:19.690Z,13.06
2018-03-11T01:03:48.006Z,13.08
2018-03-11T01:06:17.096Z,13.07
2018-03-11T01:08:46.162Z,13.09
2018-03-11T01:11:14.460Z,13.11
2018-03-11T01:13:42.760Z,13.10
2018-03-11T01:16:11.826Z,13.10
2018-03-11T01:18:40.127Z,13.08
2018-03-11T01:21:08.435Z,13.06
2018-03-11T01:23:36.748Z,13.04
2018-03-11T01:26:05.042Z,13.03
2018-03-11T01:28:33.336Z,13.00
2018-03-11T01:31:01.630Z,12.97
2018-03-11T01:33:29.929Z,12.92
2018-03-11T01:35:58.988Z,12.85
2018-03-11T01:38:27.295Z,12.81
2018-03-11T01:40:55.618Z,12.75
2018-03-11T01:43:23.916Z,12.66
2018-03-11T01:45:52.288Z,12.57
2018-03-11T01:48:20.604Z,12.47
2018-03-11T01:50:48.900Z,12.35
2018-03-11T01:53:17.212Z,12.25
2018-03-11T01:55:46.869Z,12.25
2018-03-11T01:58:15.160Z,12.25
2018-03-11T02:00:43.464Z,12.22
2018-03-11T02:03:12.542Z,12.23
2018-03-11T02:05:40.839Z,12.22
2018-03-11T02:08:09.992Z,12.16
2018-03-11T02:10:38.306Z,12.12
2018-03-11T02:13:06.614Z,12.05
2018-03-11T02:15:34.904Z,11.95
2018-03-11T02:18:03.970Z,11.88
2018-03-11T02:20:32.276Z,11.78
2018-03-11T02:23:00.570Z,11.69
2018-03-11T02:25:29.632Z,11.62
2018-03-11T02:27:57.936Z,11.56
2018-03-11T02:30:26.263Z,11.54
2018-03-11T02:32:54.573Z,11.55
2018-03-11T02:35:22.881Z,11.59
2018-03-11T02:37:51.189Z,11.57
2018-03-11T02:40:19.506Z,11.55
2018-03-11T02:42:48.658Z,11.62
2018-03-11T02:45:17.721Z,11.69
2018-03-11T02:47:46.029Z,11.73
2018-03-11T02:50:14.351Z,11.85
2018-03-11T02:52:42.653Z,11.96
2018-03-11T02:55:11.034Z,12.04
2018-03-11T02:57:39.345Z,12.15
2018-03-11T03:00:07.662Z,12.21
2018-03-11T03:02:36.744Z,12.30
2018-03-11T03:05:05.807Z,12.35
2018-03-11T03:07:34.102Z,12.40
2018-03-11T03:10:02.409Z,12.46
2018-03-11T03:12:31.486Z,12.51
2018-03-11T03:14:59.802Z,12.53
2018-03-11T03:17:28.863Z,12.54
2018-03-11T03:19:57.186Z,12.56
2018-03-11T03:22:25.497Z,12.59
2018-03-11T03:24:54.565Z,12.65
2018-03-11T03:27:23.641Z,12.70
2018-03-11T03:29:51.953Z,12.72
2018-03-11T03:32:20.253Z,12.74
2018-03-11T03:34:48.567Z,12.76
2018-03-11T03:37:16.865Z,12.80
2018-03-11T03:39:45.159Z,12.83
2018-03-11T03:42:14.233Z,12.84
2018-03-11T03:44:42.529Z,12.86
2018-03-11T03:47:10.848Z,12.89
2018-03-11T03:49:39.144Z,12.91
2018-03-11T03:52:08.457Z,12.94
2018-03-11T03:54:36.749Z,12.94
2018-03-11T03:57:05.041Z,12.94
2018-03-11T03:59:33.340Z,12.94
2018-03-11T04:02:01.653Z,12.89
2018-03-11T04:04:30.726Z,12.90
2018-03-11T04:06:59.025Z,12.87
2018-03-11T04:09:28.185Z,12.85
2018-03-11T04:11:56.523Z,12.81
2018-03-11T04:14:24.833Z,12.77
2018-03-11T04:16:53.142Z,12.72
2018-03-11T04:19:21.466Z,12.66
2018-03-11T04:21:49.769Z,12.64
2018-03-11T04:24:18.066Z,12.58
2018-03-11T04:26:46.374Z,12.52
2018-03-11T04:29:14.669Z,12.48
2018-03-11T04:31:42.960Z,12.46
2018-03-11T04:34:12.037Z,12.46
2018-03-11T04:36:40.359Z,12.46
2018-03-11T04:39:08.723Z,12.46
2018-03-11T04:41:37.817Z,12.47
2018-03-11T04:44:06.887Z,12.48
2018-03-11T04:46:35.192Z,12.48
2018-03-11T04:49:03.741Z,12.47
2018-03-11T04:51:32.047Z,12.48
2018-03-11T04:54:00.349Z,12.48
2018-03-11T04:56:29.403Z,12.49
2018-03-11T04:58:57.716Z,12.47
2018-03-11T05:01:26.023Z,12.47
2018-03-11T05:03:55.097Z,12.45
2018-03-11T05:06:23.395Z,12.46
2018-03-11T05:08:52.467Z,12.47
2018-03-11T05:11:20.767Z,12.46
2018-03-11T05:13:49.067Z,12.46
2018-03-11T05:16:18.117Z,12.42
2018-03-11T05:18:46.425Z,12.38
2018-03-11T05:21:14.975Z,12.37
2018-03-11T05:23:43.429Z,12.36
2018-03-11T05:26:11.711Z,12.37
2018-03-11T05:28:40.005Z,12.38
2018-03-11T05:31:08.299Z,12.37
2018-03-11T05:33:36.623Z,12.38
2018-03-11T05:36:04.954Z,12.35
2018-03-11T05:38:33.257Z,12.33
2018-03-11T05:41:01.567Z,12.30
2018-03-11T05:43:29.877Z,12.30
2018-03-11T05:45:58.939Z,12.26
2018-03-11T05:48:27.237Z,12.22
2018-03-11T05:50:55.542Z,12.20
2018-03-11T05:53:23.964Z,12.19
2018-03-11T05:55:52.980Z,12.15
2018-03-11T05:58:21.283Z,12.15
2018-03-11T06:00:49.590Z,12.15
2018-03-11T06:03:17.891Z,12.14
2018-03-11T06:05:46.243Z,12.09
2018-03-11T06:08:15.395Z,12.07
2018-03-11T06:10:43.717Z,12.06
2018-03-11T06:13:12.785Z,12.04
2018-03-11T06:15:41.079Z,12.01
2018-03-11T06:18:09.381Z,12.00
2018-03-11T06:20:38.450Z,12.00
2018-03-11T06:23:06.731Z,11.99
2018-03-11T06:25:35.047Z,11.99
2018-03-11T06:28:04.117Z,11.99
2018-03-11T06:30:32.431Z,12.02
2018-03-11T06:33:01.489Z,12.02
2018-03-11T06:35:29.795Z,12.00
2018-03-11T06:37:58.097Z,12.00
2018-03-11T06:40:27.159Z,12.02
2018-03-11T06:42:55.485Z,12.01
2018-03-11T06:45:23.845Z,12.00
2018-03-11T06:47:52.906Z,11.99
2018-03-11T06:50:21.203Z,11.99
2018-03-11T06:52:49.507Z,11.97
2018-03-11T06:55:17.819Z,11.94
2018-03-11T06:57:46.135Z,11.89
2018-03-11T07:00:14.448Z,11.91
2018-03-11T07:02:42.753Z,11.90
2018-03-11T07:05:11.068Z,11.89
2018-03-11T07:07:39.358Z,11.86
2018-03-11T07:10:07.655Z,11.90
2018-03-11T07:12:35.959Z,11.95
2018-03-11T07:15:04.964Z,11.98
2018-03-11T07:17:34.047Z,12.02
2018-03-11T07:20:02.350Z,12.05
2018-03-11T07:22:31.434Z,12.11
2018-03-11T07:24:59.744Z,12.13
2018-03-11T07:27:28.058Z,12.15
2018-03-11T07:29:56.348Z,12.20
2018-03-11T07:32:24.672Z,12.25
2018-03-11T07:34:53.728Z,12.26
2018-03-11T07:37:22.026Z,12.22
2018-03-11T07:39:50.317Z,12.19
2018-03-11T07:42:18.606Z,12.13
2018-03-11T07:44:46.914Z,12.09
2018-03-11T07:47:15.219Z,12.01
2018-03-11T07:49:43.510Z,11.96
2018-03-11T07:52:11.816Z,11.91
2018-03-11T07:54:40.146Z,11.83
2018-03-11T07:57:08.459Z,11.76
2018-03-11T07:59:36.752Z,11.73
2018-03-11T08:02:05.086Z,11.71
2018-03-11T08:04:34.172Z,11.73
2018-03-11T08:07:03.262Z,11.71
2018-03-11T08:09:31.582Z,11.73
2018-03-11T08:11:59.874Z,11.72
2018-03-11T08:14:28.171Z,11.77
2018-03-11T08:16:56.480Z,11.83
2018-03-11T08:19:24.781Z,11.83
2018-03-11T08:24:26.105Z,11.96
2018-03-11T08:26:54.429Z,12.05
2018-03-11T08:29:23.499Z,12.09
2018-03-11T08:31:51.965Z,12.12
2018-03-11T08:34:20.270Z,12.16
2018-03-11T08:36:48.600Z,12.18
2018-03-11T08:39:16.908Z,12.24
2018-03-11T08:41:45.221Z,12.43
2018-03-11T08:44:13.682Z,12.53
2018-03-11T08:46:42.011Z,12.52
2018-03-11T08:49:11.102Z,12.57
2018-03-11T08:51:40.180Z,12.65
2018-03-11T08:54:08.529Z,12.71
2018-03-11T08:56:36.850Z,12.72
2018-03-11T08:59:05.170Z,12.80
2018-03-11T09:01:33.491Z,12.93
2018-03-11T09:04:01.804Z,12.88
2018-03-11T09:06:30.128Z,12.78
2018-03-11T09:08:58.505Z,12.71
2018-03-11T09:11:26.916Z,12.66
2018-03-11T09:13:55.227Z,12.59
2018-03-11T09:16:23.547Z,12.51
2018-03-11T09:18:52.645Z,12.50
2018-03-11T09:21:21.774Z,12.50
2018-03-11T09:23:50.117Z,12.52
2018-03-11T09:26:19.223Z,12.61
2018-03-11T09:28:47.567Z,12.72
2018-03-11T09:31:15.866Z,12.78
2018-03-11T09:33:44.191Z,12.78
2018-03-11T09:36:12.503Z,12.80
2018-03-11T09:38:40.809Z,12.83
2018-03-11T09:41:09.249Z,12.84
2018-03-11T09:43:38.290Z,12.84
2018-03-11T09:46:06.612Z,12.82
2018-03-11T09:48:34.933Z,12.86
2018-03-11T09:51:03.250Z,12.90
2018-03-11T09:53:32.356Z,12.96
2018-03-11T09:56:01.490Z,13.01
2018-03-11T09:58:29.787Z,13.16
2018-03-11T10:00:58.104Z,13.45
2018-03-11T10:03:26.469Z,13.73
2018-03-11T10:05:54.786Z,13.82
2018-03-11T10:10:58.364Z,13.91
2018-03-11T10:13:26.725Z,14.05
2018-03-11T10:15:55.068Z,14.18
2018-03-11T10:18:23.390Z,14.25
2018-03-11T10:20:51.719Z,14.20
2018-03-11T10:23:20.056Z,14.16
2018-03-11T10:25:48.372Z,14.24
2018-03-11T10:28:16.697Z,14.25
2018-03-11T10:30:45.787Z,14.29
2018-03-11T10:33:14.870Z,14.33
2018-03-11T10:35:43.208Z,14.41
2018-03-11T10:38:11.562Z,14.56
2018-03-11T10:40:39.896Z,14.63
2018-03-11T10:43:08.232Z,14.59
2018-03-11T10:45:36.570Z,14.63
2018-03-11T10:48:08.366Z,14.67
2018-03-11T10:50:37.472Z,14.75
2018-03-11T10:53:05.784Z,14.83
2018-03-11T10:55:34.925Z,14.85
2018-03-11T10:58:03.228Z,14.84
2018-03-11T11:00:37.704Z,14.83
2018-03-11T11:03:22.851Z,14.82
2018-03-11T11:05:51.167Z,14.78
2018-03-11T11:08:19.503Z,14.72
2018-03-11T11:10:52.690Z,14.68
2018-03-11T11:13:21.606Z,14.61
2018-03-11T11:15:50.349Z,14.65
2018-03-11T11:18:19.872Z,14.62
2018-03-11T11:20:48.961Z,14.59
2018-03-11T11:23:17.286Z,14.45
2018-03-11T11:25:45.609Z,14.32
2018-03-11T11:28:13.943Z,14.29
2018-03-11T11:30:42.266Z,14.33
2018-03-11T11:33:10.584Z,14.33
2018-03-11T11:35:39.750Z,14.43
2018-03-11T11:38:08.068Z,14.51
2018-03-11T11:40:38.087Z,14.71
2018-03-11T11:43:06.428Z,14.95
2018-03-11T11:45:34.742Z,15.36
2018-03-11T11:48:03.052Z,16.11
2018-03-11T11:50:31.405Z,16.53
2018-03-11T11:52:59.724Z,16.81
2018-03-11T11:55:28.031Z,16.88
2018-03-11T11:57:56.363Z,17.19
2018-03-11T12:00:25.459Z,17.00
2018-03-11T12:02:54.598Z,16.84
2018-03-11T12:05:22.960Z,16.86
2018-03-11T12:07:51.258Z,16.83
2018-03-11T12:10:19.578Z,17.17
2018-03-11T12:12:47.919Z,17.17
2018-03-11T12:15:16.262Z,17.27
2018-03-11T12:17:44.586Z,17.80
2018-03-11T12:20:13.013Z,18.13
2018-03-11T12:22:41.351Z,18.61
2018-03-11T12:25:09.688Z,19.07
2018-03-11T12:27:38.032Z,19.41
2018-03-11T12:30:06.517Z,19.48
2018-03-11T12:32:34.843Z,19.49
2018-03-11T12:35:03.920Z,19.54
2018-03-11T12:37:33.020Z,19.51
2018-03-11T12:40:01.339Z,19.63
2018-03-11T12:42:30.432Z,20.01
2018-03-11T12:44:59.522Z,20.10
2018-03-11T12:47:27.857Z,20.11
2018-03-11T12:49:56.180Z,20.53
2018-03-11T12:52:24.520Z,21.04
2018-03-11T12:54:53.175Z,21.00
2018-03-11T12:57:22.311Z,21.51
2018-03-11T12:59:51.097Z,21.53
2018-03-11T13:02:19.443Z,21.29
2018-03-11T13:04:48.527Z,21.20
2018-03-11T13:07:16.845Z,21.47
2018-03-11T13:09:45.157Z,21.70
2018-03-11T13:12:13.497Z,22.70
2018-03-11T13:14:43.314Z,23.81
2018-03-11T13:17:12.411Z,24.03
2018-03-11T13:19:41.537Z,23.49
2018-03-11T13:22:09.977Z,22.54
2018-03-11T13:24:38.313Z,22.17
2018-03-11T13:27:06.630Z,22.10
2018-03-11T13:29:35.673Z,21.97
2018-03-11T13:32:21.610Z,22.12
2018-03-11T13:34:49.921Z,22.44
2018-03-11T13:37:19.013Z,22.82
2018-03-11T13:40:05.676Z,23.10
2018-03-11T13:42:33.981Z,22.96
2018-03-11T13:45:20.259Z,22.94
2018-03-11T13:47:48.586Z,22.97
2018-03-11T13:50:16.905Z,22.77
2018-03-11T13:53:03.102Z,22.48
2018-03-11T13:55:31.523Z,22.40
2018-03-11T13:58:17.301Z,22.29
2018-03-11T14:00:45.619Z,22.21
2018-03-11T14:03:13.978Z,21.92
2018-03-11T14:05:43.058Z,21.67
2018-03-11T14:08:11.432Z,21.54
2018-03-11T14:10:39.934Z,21.51
2018-03-11T14:13:08.251Z,21.41
2018-03-11T14:15:36.594Z,21.31
2018-03-11T14:18:04.973Z,21.30
2018-03-11T14:20:33.316Z,21.25
2018-03-11T14:23:01.629Z,21.21
2018-03-11T14:25:29.951Z,21.10
2018-03-11T14:27:58.348Z,20.97
2018-03-11T14:30:26.825Z,20.95
2018-03-11T14:32:55.177Z,20.87
2018-03-11T14:35:23.488Z,20.76
2018-03-11T14:37:52.449Z,20.67
2018-03-11T14:40:20.777Z,20.62
2018-03-11T14:42:49.101Z,20.81
2018-03-11T14:45:17.444Z,21.51
2018-03-11T14:47:45.764Z,22.88
2018-03-11T14:50:14.107Z,25.03
2018-03-11T14:52:42.510Z,26.99
2018-03-11T14:55:12.599Z,27.34
2018-03-11T14:57:41.831Z,27.48
2018-03-11T15:00:10.182Z,28.05
2018-03-11T15:02:39.307Z,28.40
2018-03-11T15:05:07.646Z,27.27
2018-03-11T15:07:35.971Z,26.61
2018-03-11T15:10:04.332Z,25.95
2018-03-11T15:12:33.456Z,25.35
2018-03-11T15:15:01.786Z,25.02
2018-03-11T15:17:30.117Z,24.86
2018-03-11T15:19:58.443Z,24.57
2018-03-11T15:22:26.758Z,24.10
2018-03-11T15:24:55.192Z,23.65
2018-03-11T15:27:23.489Z,22.96
2018-03-11T15:29:51.815Z,22.47
2018-03-11T15:32:20.893Z,21.93
2018-03-11T15:34:49.215Z,21.45
2018-03-11T15:37:17.573Z,20.87
2018-03-11T15:39:45.920Z,20.73
2018-03-11T15:42:14.257Z,20.55
2018-03-11T15:44:42.696Z,20.30
2018-03-11T15:47:11.070Z,20.11
2018-03-11T15:49:39.448Z,19.95
2018-03-11T15:52:07.734Z,19.82
2018-03-11T15:54:36.111Z,19.69
2018-03-11T15:57:04.451Z,19.58
2018-03-11T15:59:32.883Z,19.97
2018-03-11T16:02:01.222Z,19.84
2018-03-11T16:04:29.518Z,19.72
2018-03-11T16:06:57.931Z,19.89
2018-03-11T16:09:26.263Z,21.22
2018-03-11T16:11:54.631Z,22.46
2018-03-11T16:14:22.987Z,22.96
2018-03-11T16:16:52.100Z,23.50
2018-03-11T16:19:20.448Z,23.84
2018-03-11T16:21:48.820Z,23.99
2018-03-11T16:24:28.280Z,24.21
2018-03-11T16:26:46.252Z,24.38
2018-03-11T16:29:14.594Z,24.50
2018-03-11T16:31:43.038Z,23.80
2018-03-11T16:34:11.366Z,22.44
2018-03-11T16:36:39.692Z,21.36
2018-03-11T16:39:08.810Z,20.43
2018-03-11T16:41:38.061Z,19.66
2018-03-11T16:44:06.395Z,19.07
2018-03-11T16:46:34.754Z,18.49
2018-03-11T16:49:03.093Z,18.13
2018-03-11T16:51:31.443Z,17.88
2018-03-11T16:53:59.776Z,17.58
2018-03-11T16:56:28.900Z,17.17
2018-03-11T16:58:57.238Z,16.79
2018-03-11T17:01:25.586Z,16.46
2018-03-11T17:03:55.124Z,16.16
2018-03-11T17:06:23.498Z,15.90
2018-03-11T17:08:51.829Z,15.75
2018-03-11T17:11:20.148Z,15.61
2018-03-11T17:13:49.247Z,15.48
2018-03-11T17:16:18.402Z,15.26
2018-03-11T17:18:46.734Z,15.00
2018-03-11T17:21:15.065Z,14.79
2018-03-11T17:23:43.392Z,14.50
2018-03-11T17:26:13.375Z,14.24
2018-03-11T17:28:41.720Z,14.08
2018-03-11T17:31:10.081Z,14.01
2018-03-11T17:33:38.405Z,13.94
2018-03-11T17:36:06.704Z,13.82
2018-03-11T17:38:35.064Z,13.64
2018-03-11T17:41:03.406Z,13.42
2018-03-11T17:43:32.530Z,13.23
2018-03-11T17:46:00.880Z,13.12
2018-03-11T17:48:29.998Z,13.05
2018-03-11T17:50:59.100Z,12.93
2018-03-11T17:53:27.423Z,12.77
2018-03-11T17:55:55.757Z,12.58
2018-03-11T17:58:24.839Z,12.34
2018-03-11T18:00:54.460Z,12.10
2018-03-11T18:03:23.840Z,11.90
2018-03-11T18:05:54.726Z,11.73
2018-03-11T18:08:23.200Z,11.54
2018-03-11T18:10:51.625Z,11.38
2018-03-11T18:13:20.128Z,11.21
2018-03-11T18:15:48.469Z,11.09
2018-03-11T18:18:17.983Z,11.01
2018-03-11T18:20:46.459Z,10.91
2018-03-11T18:23:15.744Z,10.84
2018-03-11T18:25:45.021Z,10.74
2018-03-11T18:28:13.344Z,10.66
2018-03-11T18:30:41.931Z,10.61
2018-03-11T18:33:10.452Z,10.54
2018-03-11T18:35:39.606Z,10.47
2018-03-11T18:38:08.860Z,10.41
2018-03-11T18:40:37.190Z,10.40
2018-03-11T18:43:06.392Z,10.42
2018-03-11T18:45:35.762Z,10.40
2018-03-11T18:48:04.191Z,10.41
2018-03-11T18:50:33.287Z,10.36
2018-03-11T18:53:01.644Z,10.31
2018-03-11T18:55:30.188Z,10.23
2018-03-11T18:57:58.794Z,10.12
2018-03-11T19:00:27.398Z,10.00
2018-03-11T19:02:55.729Z,9.93
2018-03-11T19:05:24.265Z,9.86
2018-03-11T19:07:52.599Z,9.81
2018-03-11T19:10:21.194Z,9.75
2018-03-11T19:12:49.788Z,9.69
2018-03-11T19:15:18.152Z,9.66
2018-03-11T19:17:47.573Z,9.64
2018-03-11T19:20:15.927Z,9.61
2018-03-11T19:22:45.362Z,9.55
2018-03-11T19:25:19.149Z,9.49
2018-03-11T19:27:47.492Z,9.47
2018-03-11T19:30:15.810Z,9.46
2018-03-11T19:32:44.963Z,9.45
2018-03-11T19:35:13.298Z,9.43
2018-03-11T19:37:42.371Z,9.40
2018-03-11T19:40:10.721Z,9.34
2018-03-11T19:42:39.028Z,9.32
2018-03-11T19:45:07.338Z,9.33
2018-03-11T19:47:36.415Z,9.34
2018-03-11T19:50:04.797Z,9.36
2018-03-11T19:52:33.113Z,9.37
2018-03-11T19:55:02.200Z,9.41
2018-03-11T19:57:31.344Z,9.38
2018-03-11T19:59:59.691Z,9.32
2018-03-11T20:02:28.780Z,9.27
2018-03-11T20:04:57.094Z,9.20
2018-03-11T20:07:25.399Z,9.18
2018-03-11T20:09:53.705Z,9.16
2018-03-11T20:12:22.014Z,9.10
2018-03-11T20:14:51.101Z,9.07
2018-03-11T20:17:19.425Z,9.05
2018-03-11T20:19:47.737Z,9.02
2018-03-11T20:22:16.069Z,9.02
2018-03-11T20:24:45.135Z,9.00
2018-03-11T20:27:13.617Z,8.96
2018-03-11T20:29:41.917Z,8.96
2018-03-11T20:32:10.247Z,8.93
2018-03-11T20:34:38.538Z,8.96
2018-03-11T20:37:06.869Z,8.95
2018-03-11T20:39:35.947Z,8.98
2018-03-11T20:42:04.254Z,8.97
2018-03-11T20:44:33.334Z,8.92
2018-03-11T20:47:01.714Z,8.86
2018-03-11T20:49:30.035Z,8.85
2018-03-11T20:51:58.341Z,8.85
2018-03-11T20:54:26.759Z,8.86
2018-03-11T20:56:55.081Z,8.89
2018-03-11T20:59:23.387Z,8.94
2018-03-11T21:01:51.774Z,8.96
2018-03-11T21:04:20.079Z,8.96
2018-03-11T21:06:48.404Z,8.95
2018-03-11T21:09:17.476Z,8.93
2018-03-11T21:11:45.778Z,8.93
2018-03-11T21:14:15.221Z,8.91
2018-03-11T21:16:43.525Z,8.89
2018-03-11T21:19:11.837Z,8.87
2018-03-11T21:21:40.303Z,8.82
2018-03-11T21:24:08.620Z,8.78
2018-03-11T21:26:37.697Z,8.78
2018-03-11T21:29:06.010Z,8.80
2018-03-11T21:31:35.107Z,8.80
2018-03-11T21:34:04.190Z,8.81
2018-03-11T21:36:32.508Z,8.84
2018-03-11T21:39:00.821Z,8.87
2018-03-11T21:41:29.897Z,8.88
2018-03-11T21:43:58.245Z,8.90
2018-03-11T21:46:27.330Z,8.89
2018-03-11T21:48:55.645Z,8.88
2018-03-11T21:51:23.968Z,8.89
2018-03-11T21:53:52.319Z,8.96
2018-03-11T21:56:20.631Z,9.06
2018-03-11T21:58:48.947Z,9.12
2018-03-11T22:01:17.269Z,9.13
2018-03-11T22:03:45.654Z,9.07
2018-03-11T22:06:14.015Z,8.97
2018-03-11T22:08:43.092Z,8.86
2018-03-11T22:11:11.395Z,8.75
2018-03-11T22:13:40.717Z,8.63
2018-03-11T22:16:09.021Z,8.56
2018-03-11T22:18:37.337Z,8.48
2018-03-11T22:21:05.647Z,8.38
2018-03-11T22:23:34.740Z,8.32
2018-03-11T22:26:03.059Z,8.23
2018-03-11T22:28:31.371Z,8.14
2018-03-11T22:30:59.693Z,8.08
2018-03-11T22:33:28.781Z,8.04
2018-03-11T22:35:57.853Z,8.02
2018-03-11T22:38:26.157Z,7.99
2018-03-11T22:40:54.485Z,7.96
2018-03-11T22:43:22.797Z,7.97
2018-03-11T22:45:51.101Z,8.01
2018-03-11T22:48:20.195Z,8.07
2018-03-11T22:50:48.499Z,8.16
2018-03-11T22:53:17.591Z,8.34
2018-03-11T22:55:46.669Z,8.60
2018-03-11T22:58:14.972Z,8.88
2018-03-11T23:00:44.060Z,9.13
2018-03-11T23:03:12.375Z,9.31
2018-03-11T23:05:40.708Z,9.47
2018-03-11T23:08:09.045Z,9.57
2018-03-11T23:10:37.398Z,9.70
2018-03-11T23:13:06.465Z,9.87
2018-03-11T23:15:34.807Z,10.06
2018-03-11T23:18:03.125Z,10.25
2018-03-11T23:20:31.442Z,10.39
2018-03-11T23:23:00.515Z,10.51
2018-03-11T23:25:28.875Z,10.52
2018-03-11T23:27:57.200Z,10.50
2018-03-11T23:30:25.516Z,10.45
2018-03-11T23:32:53.813Z,10.48
2018-03-11T23:35:22.124Z,10.44
2018-03-11T23:37:50.445Z,10.41
2018-03-11T23:40:19.528Z,10.40
2018-03-11T23:42:47.865Z,10.37
2018-03-11T23:45:16.176Z,10.29
2018-03-11T23:47:44.501Z,10.22
2018-03-11T23:50:12.816Z,10.17
2018-03-11T23:52:41.133Z,10.13
2018-03-11T23:55:09.465Z,10.12
2018-03-11T23:57:37.787Z,10.14
